Time;durP1;ratioP1;P1;durP2;ratioP2;P2;SDS_P1;SDS_P2;PMS_P1;PMS_P2;Temp;Humidity;BMP_temperature;BMP_pressure;BME280_temperature;BME280_humidity;BME280_pressure;Samples;Min_cycle;Max_cycle;Signal;HPM_P1;HPM_P2
2021/08/27 04:00:20;;;;;;;2.20;1.90;;;13.90;99.90;;;;;;6107716;23;20896;31
2021/08/27 04:02:48;;;;;;;2.90;2.70;;;13.90;99.90;;;;;;6095343;23;20416;-70
2021/08/27 04:05:16;;;;;;;1.57;1.47;;;13.90;99.90;;;;;;6096540;23;20879;-71
2021/08/27 04:07:45;;;;;;;2.60;2.43;;;13.90;99.90;;;;;;6096183;23;20451;-72
2021/08/27 04:10:19;;;;;;;3.23;2.20;;;13.90;99.90;;;;;;6096237;23;20425;-71
2021/08/27 04:12:46;;;;;;;2.40;1.60;;;13.80;99.90;;;;;;6096165;23;20404;-70
2021/08/27 04:15:15;;;;;;;1.57;1.57;;;13.80;99.90;;;;;;6096236;23;20420;-70
2021/08/27 04:17:43;;;;;;;1.80;1.80;;;13.80;99.90;;;;;;6096088;23;20421;-68
2021/08/27 04:20:13;;;;;;;1.60;1.50;;;13.80;99.90;;;;;;6096387;23;20424;-69
2021/08/27 04:22:40;;;;;;;1.60;1.50;;;13.70;99.90;;;;;;6095621;23;20420;-69
2021/08/27 04:25:08;;;;;;;1.90;1.80;;;13.70;99.90;;;;;;6095899;23;20448;-71
2021/08/27 04:27:34;;;;;;;4.13;2.17;;;13.60;99.90;;;;;;6096347;23;20524;-69
2021/08/27 04:30:01;;;;;;;1.80;1.70;;;13.60;99.90;;;;;;6095475;23;20433;-69
2021/08/27 04:32:28;;;;;;;2.37;2.17;;;13.60;99.90;;;;;;6095055;23;20556;-69
2021/08/27 04:34:56;;;;;;;1.97;1.87;;;13.60;99.90;;;;;;6095459;23;20793;-69
2021/08/27 04:37:22;;;;;;;1.70;1.67;;;13.50;99.90;;;;;;6095833;23;20810;-69
2021/08/27 04:39:49;;;;;;;3.90;2.20;;;13.50;99.90;;;;;;6095385;23;20914;-69
2021/08/27 04:42:16;;;;;;;2.10;1.90;;;13.50;99.90;;;;;;6095135;23;20204;-69
2021/08/27 04:44:46;;;;;;;3.27;1.60;;;13.50;99.90;;;;;;6095169;23;20445;-68
2021/08/27 04:47:12;;;;;;;2.20;1.90;;;13.40;99.90;;;;;;6095360;23;20746;-72
2021/08/27 04:49:39;;;;;;;3.40;2.20;;;13.40;99.90;;;;;;6095637;23;20180;-73
2021/08/27 04:52:07;;;;;;;2.63;1.90;;;13.40;99.90;;;;;;6095430;23;20528;-72
2021/08/27 04:54:35;;;;;;;2.58;2.03;;;13.40;99.90;;;;;;6095509;23;20425;-72
2021/08/27 04:57:01;;;;;;;2.20;2.00;;;13.30;99.90;;;;;;6095873;23;20210;-71
2021/08/27 04:59:28;;;;;;;2.40;2.30;;;13.30;99.90;;;;;;6095351;23;20180;-72
2021/08/27 05:01:55;;;;;;;5.30;2.80;;;13.30;99.90;;;;;;6134398;23;20215;-73
2021/08/27 05:04:21;;;;;;;2.80;2.27;;;13.30;99.90;;;;;;6154294;23;20478;-72
2021/08/27 05:06:48;;;;;;;5.00;2.47;;;13.30;99.90;;;;;;6154079;23;20449;-73
2021/08/27 05:09:18;;;;;;;3.30;3.00;;;13.30;99.90;;;;;;6154432;23;20806;-72
2021/08/27 05:11:44;;;;;;;2.70;2.60;;;13.30;99.90;;;;;;6164289;23;20746;-72
2021/08/27 05:14:12;;;;;;;5.63;3.00;;;13.30;99.90;;;;;;6153701;23;20727;-72
2021/08/27 05:16:39;;;;;;;2.83;2.50;;;13.30;99.90;;;;;;6153752;23;20489;-72
2021/08/27 05:19:06;;;;;;;2.75;2.10;;;13.30;99.90;;;;;;6154240;23;20183;-72
2021/08/27 05:21:34;;;;;;;3.45;2.40;;;13.20;99.90;;;;;;6153639;23;20203;-69
2021/08/27 05:24:01;;;;;;;2.27;2.10;;;13.20;99.90;;;;;;6153788;23;20245;-69
2021/08/27 05:26:29;;;;;;;3.38;2.60;;;13.20;99.90;;;;;;6154025;23;20429;-68
2021/08/27 05:28:56;;;;;;;3.57;3.27;;;13.20;99.90;;;;;;6153565;23;20195;-69
2021/08/27 05:31:23;;;;;;;2.97;2.73;;;13.20;99.90;;;;;;6153633;23;20470;-69
2021/08/27 05:33:49;;;;;;;3.33;2.25;;;13.30;99.90;;;;;;6154193;23;20474;-70
2021/08/27 05:36:16;;;;;;;3.35;2.45;;;13.20;99.90;;;;;;6163595;23;20187;-72
2021/08/27 05:38:43;;;;;;;4.05;2.53;;;13.20;99.90;;;;;;6154502;23;20202;-72
2021/08/27 05:41:10;;;;;;;2.38;2.20;;;13.20;99.90;;;;;;6164203;23;20245;-73
2021/08/27 05:43:38;;;;;;;3.70;2.30;;;13.20;99.90;;;;;;6153823;23;20574;-71
2021/08/27 05:46:05;;;;;;;2.70;2.50;;;13.20;99.90;;;;;;6154087;23;20434;-73
2021/08/27 05:48:31;;;;;;;4.73;2.57;;;13.20;99.90;;;;;;6153931;23;20423;-72
2021/08/27 05:50:58;;;;;;;3.03;2.67;;;13.20;99.90;;;;;;6154459;23;20529;-73
2021/08/27 05:53:25;;;;;;;8.85;2.70;;;13.20;99.90;;;;;;6154059;23;20560;-73
2021/08/27 05:55:52;;;;;;;3.03;2.77;;;13.20;99.90;;;;;;6154476;23;20508;-73
2021/08/27 05:58:18;;;;;;;2.67;2.47;;;13.20;99.90;;;;;;6153918;23;20423;-73
2021/08/27 06:00:46;;;;;;;5.07;2.40;;;13.20;99.90;;;;;;6154054;23;20633;-72
2021/08/27 06:03:13;;;;;;;3.53;2.97;;;13.20;99.90;;;;;;6155811;23;20403;-73
2021/08/27 06:05:39;;;;;;;2.60;2.50;;;13.20;99.90;;;;;;6156210;23;20450;-72
2021/08/27 06:08:07;;;;;;;3.50;3.20;;;13.20;99.90;;;;;;6156072;23;20294;-73
2021/08/27 06:10:33;;;;;;;3.30;3.10;;;13.20;99.90;;;;;;6156452;23;20524;-73
2021/08/27 06:13:00;;;;;;;3.15;2.25;;;13.20;99.90;;;;;;6156300;23;20186;-72
2021/08/27 06:15:27;;;;;;;2.63;2.40;;;13.20;99.90;;;;;;6155696;23;20234;-72
2021/08/27 06:17:55;;;;;;;5.18;2.45;;;13.20;99.90;;;;;;6155545;23;20187;-72
2021/08/27 06:20:22;;;;;;;3.13;2.55;;;13.30;99.90;;;;;;6155440;23;20183;-73
2021/08/27 06:22:48;;;;;;;3.38;3.00;;;13.30;99.90;;;;;;6155674;23;20190;-72
2021/08/27 06:25:15;;;;;;;2.58;2.30;;;13.30;99.90;;;;;;6155808;23;20254;-72
2021/08/27 06:27:42;;;;;;;2.67;2.58;;;13.30;99.90;;;;;;6156297;23;20262;-73
2021/08/27 06:30:09;;;;;;;3.90;2.50;;;13.30;99.90;;;;;;6154985;23;20183;-72
2021/08/27 06:32:36;;;;;;;2.30;2.20;;;13.40;99.90;;;;;;6155387;23;20265;-72
2021/08/27 06:35:05;;;;;;;6.07;3.05;;;13.40;99.90;;;;;;6156201;23;20418;-72
2021/08/27 06:40:16;;;;;;;2.70;2.57;;;13.50;99.90;;;;;;6155685;23;20426;-73
2021/08/27 06:42:43;;;;;;;3.60;2.93;;;13.50;99.90;;;;;;6155123;23;20426;-72
2021/08/27 06:45:10;;;;;;;3.33;3.10;;;13.50;99.90;;;;;;6155060;23;20565;-72
2021/08/27 06:47:37;;;;;;;2.83;2.20;;;13.60;99.90;;;;;;6155446;23;20797;-73
2021/08/27 06:50:06;;;;;;;4.93;2.40;;;13.60;99.90;;;;;;6155780;23;20422;-72
2021/08/27 06:52:33;;;;;;;2.37;2.17;;;13.60;99.90;;;;;;6155869;23;20780;-72
2021/08/27 06:55:00;;;;;;;4.20;2.63;;;13.70;99.90;;;;;;6155487;23;20943;-73
2021/08/27 06:57:26;;;;;;;2.70;2.50;;;13.70;99.90;;;;;;6155410;23;20884;-72
2021/08/27 06:59:54;;;;;;;3.43;3.20;;;13.80;99.90;;;;;;6155901;23;20685;-71
2021/08/27 07:02:20;;;;;;;2.53;2.43;;;13.80;99.90;;;;;;6154893;23;20454;-71
2021/08/27 07:04:47;;;;;;;2.70;2.60;;;13.80;99.90;;;;;;6155973;23;20450;-72
2021/08/27 07:07:15;;;;;;;2.40;2.40;;;13.90;99.90;;;;;;6155453;23;20438;-71
2021/08/27 07:09:42;;;;;;;2.77;2.57;;;13.90;99.90;;;;;;6156039;23;20422;-71
2021/08/27 07:12:11;;;;;;;2.30;2.20;;;14.00;99.90;;;;;;6155319;23;20512;-71
2021/08/27 07:14:38;;;;;;;2.33;2.03;;;14.00;99.90;;;;;;6155456;23;20426;-71
2021/08/27 07:17:05;;;;;;;2.60;2.40;;;14.00;99.90;;;;;;6155319;23;20481;-71
2021/08/27 07:19:32;;;;;;;3.80;2.60;;;14.00;99.90;;;;;;6155784;23;20749;-72
2021/08/27 07:21:58;;;;;;;2.50;2.30;;;14.10;99.90;;;;;;6155686;23;20737;-70
2021/08/27 07:24:26;;;;;;;2.40;2.30;;;14.20;99.90;;;;;;6155125;23;20956;-71
2021/08/27 07:26:53;;;;;;;2.17;2.17;;;14.20;99.90;;;;;;6155633;23;20481;-71
2021/08/27 07:29:20;;;;;;;3.00;2.53;;;14.30;99.90;;;;;;6154877;23;20445;-71
2021/08/27 07:31:46;;;;;;;2.00;1.90;;;14.30;99.90;;;;;;6155150;23;20443;-72
2021/08/27 07:34:13;;;;;;;2.23;2.13;;;14.40;99.90;;;;;;6155264;23;20485;-72
2021/08/27 07:36:41;;;;;;;1.73;1.63;;;14.40;99.90;;;;;;6155803;23;20430;-72
2021/08/27 07:39:08;;;;;;;1.67;1.60;;;14.40;99.90;;;;;;6165266;23;20509;-72
2021/08/27 07:41:36;;;;;;;2.20;1.90;;;14.40;99.90;;;;;;6155063;23;20467;-71
2021/08/27 07:44:03;;;;;;;4.03;1.77;;;14.40;99.90;;;;;;6155071;23;20423;-72
2021/08/27 07:46:29;;;;;;;1.90;1.80;;;14.40;99.90;;;;;;6155311;23;20426;-72
2021/08/27 07:48:56;;;;;;;2.03;1.93;;;14.40;99.90;;;;;;6155707;23;20509;-72
2021/08/27 07:51:23;;;;;;;1.60;1.60;;;14.40;99.90;;;;;;6155254;23;20450;-71
2021/08/27 07:53:50;;;;;;;1.70;1.70;;;14.50;99.90;;;;;;6154897;23;20462;-71
2021/08/27 07:56:16;;;;;;;2.23;2.10;;;14.50;99.90;;;;;;6155130;23;20423;-71
2021/08/27 07:58:45;;;;;;;2.00;2.00;;;14.60;99.90;;;;;;6155046;23;20422;-71
2021/08/27 08:01:12;;;;;;;2.27;2.27;;;14.60;99.90;;;;;;6155121;23;20451;-70
2021/08/27 08:03:39;;;;;;;2.43;2.30;;;14.70;99.90;;;;;;6155269;23;20423;-71
2021/08/27 08:06:05;;;;;;;2.17;1.97;;;14.80;99.90;;;;;;6154946;23;20459;-70
2021/08/27 08:08:32;;;;;;;2.97;2.03;;;14.90;99.90;;;;;;6154786;23;20904;-71
2021/08/27 08:10:59;;;;;;;1.47;1.47;;;15.00;99.90;;;;;;6155548;23;20446;-71
2021/08/27 08:13:25;;;;;;;1.43;1.43;;;15.10;99.90;;;;;;6155286;23;20818;-71
2021/08/27 08:15:53;;;;;;;2.20;1.60;;;15.20;99.90;;;;;;6155279;23;20453;-71
2021/08/27 08:18:20;;;;;;;1.17;1.17;;;15.20;99.90;;;;;;6154565;23;20452;-71
2021/08/27 08:20:47;;;;;;;1.60;1.60;;;15.30;99.90;;;;;;6155048;23;20928;-70
2021/08/27 08:23:14;;;;;;;1.63;1.63;;;15.30;99.90;;;;;;6154290;23;20905;-71
2021/08/27 08:25:40;;;;;;;1.50;1.50;;;15.40;99.90;;;;;;6154988;23;20443;-71
2021/08/27 08:28:09;;;;;;;1.40;1.40;;;15.50;99.90;;;;;;6155486;23;20427;-71
2021/08/27 08:30:37;;;;;;;1.10;1.10;;;15.50;99.90;;;;;;6154972;23;20443;-70
2021/08/27 08:33:04;;;;;;;2.40;1.70;;;15.50;99.90;;;;;;6154418;23;20423;-70
2021/08/27 08:35:31;;;;;;;1.40;1.40;;;15.50;99.90;;;;;;6154986;23;20803;-71
2021/08/27 08:37:58;;;;;;;1.77;1.67;;;15.60;99.90;;;;;;6155076;23;20481;-70
2021/08/27 08:40:24;;;;;;;1.47;1.47;;;15.70;99.90;;;;;;6154904;23;20423;-70
2021/08/27 08:42:51;;;;;;;2.00;1.53;;;15.80;99.90;;;;;;6154742;23;20726;-71
2021/08/27 08:45:18;;;;;;;2.80;2.60;;;15.90;99.90;;;;;;6154407;23;20446;-71
2021/08/27 08:47:47;;;;;;;1.50;1.50;;;16.00;99.90;;;;;;6153998;23;20423;-70
2021/08/27 08:50:16;;;;;;;1.43;1.43;;;16.10;99.90;;;;;;6154822;23;20526;-71
2021/08/27 08:52:43;;;;;;;1.37;1.37;;;16.20;99.90;;;;;;6154198;23;20493;-71
2021/08/27 08:55:10;;;;;;;1.40;1.40;;;16.40;99.90;;;;;;6154417;23;20916;-71
2021/08/27 08:57:37;;;;;;;1.50;1.47;;;16.60;99.90;;;;;;6154656;23;20422;-71
2021/08/27 09:00:06;;;;;;;2.33;1.50;;;16.70;99.90;;;;;;6154355;23;20431;-71
2021/08/27 09:02:32;;;;;;;1.43;1.43;;;16.80;99.90;;;;;;6153653;23;20466;-71
2021/08/27 09:04:59;;;;;;;1.00;1.00;;;16.80;99.90;;;;;;6154381;23;20447;-71
2021/08/27 09:07:28;;;;;;;1.10;1.10;;;16.90;99.90;;;;;;6154223;23;20992;-71
2021/08/27 09:09:54;;;;;;;1.10;1.10;;;17.00;99.90;;;;;;6154919;23;20454;-71
2021/08/27 09:12:23;;;;;;;0.90;0.90;;;17.10;99.90;;;;;;6154408;23;20450;-71
2021/08/27 09:15:01;;;;;;;0.97;0.97;;;17.20;99.90;;;;;;6153949;23;20419;-71
2021/08/27 09:17:30;;;;;;;1.60;1.50;;;17.10;99.90;;;;;;6153864;23;20406;-71
2021/08/27 09:19:57;;;;;;;0.90;0.90;;;17.10;99.90;;;;;;6154838;23;20423;-71
2021/08/27 09:22:24;;;;;;;0.87;0.83;;;17.10;99.90;;;;;;6154111;23;20442;-71
2021/08/27 09:25:10;;;;;;;1.30;1.20;;;17.20;99.90;;;;;;6153922;23;20952;-70
2021/08/27 09:28:04;;;;;;;1.40;1.30;;;17.10;99.90;;;;;;6154660;23;20904;-71
2021/08/27 09:30:32;;;;;;;2.10;1.30;;;17.00;99.90;;;;;;6155505;23;20442;-70
2021/08/27 09:33:08;;;;;;;1.30;1.20;;;16.80;99.90;;;;;;6153710;23;20422;-71
2021/08/27 09:35:34;;;;;;;1.27;1.00;;;16.80;99.90;;;;;;6154093;23;20405;-71
2021/08/27 09:38:01;;;;;;;1.30;1.00;;;16.80;99.90;;;;;;6154455;23;20426;-71
2021/08/27 09:40:32;;;;;;;1.20;1.00;;;16.90;99.90;;;;;;6154443;23;20448;-71
2021/08/27 09:43:01;;;;;;;1.43;1.43;;;17.00;99.90;;;;;;6153882;23;20411;-71
2021/08/27 09:45:39;;;;;;;1.20;1.20;;;17.20;99.90;;;;;;6153669;23;20987;-71
2021/08/27 09:48:07;;;;;;;0.90;0.90;;;17.20;99.90;;;;;;6154006;23;20445;-70
2021/08/27 09:50:35;;;;;;;5.13;1.77;;;17.10;99.90;;;;;;6154415;23;20446;-71
2021/08/27 09:53:03;;;;;;;3.03;2.33;;;16.90;99.90;;;;;;6154198;23;20423;-72
2021/08/27 09:55:33;;;;;;;1.80;1.70;;;16.60;99.90;;;;;;6154370;23;20422;-72
2021/08/27 09:58:07;;;;;;;1.20;1.20;;;16.20;99.90;;;;;;6154529;23;20418;-72
2021/08/27 10:00:36;;;;;;;1.57;1.57;;;16.20;99.90;;;;;;6153747;23;20449;-72
2021/08/27 10:03:17;;;;;;;1.63;1.50;;;16.20;99.90;;;;;;6153434;23;20407;-73
2021/08/27 10:05:44;;;;;;;1.43;1.43;;;16.30;99.90;;;;;;6154092;23;20431;-72
2021/08/27 10:08:19;;;;;;;1.60;1.60;;;16.30;99.90;;;;;;6154363;23;20423;-73
2021/08/27 10:10:50;;;;;;;1.40;1.40;;;16.50;99.90;;;;;;6154448;23;20441;-73
2021/08/27 10:13:17;;;;;;;1.87;1.73;;;16.60;99.90;;;;;;6154473;23;20473;-72
2021/08/27 10:15:43;;;;;;;1.30;1.30;;;16.70;99.90;;;;;;6154435;23;20426;-71
2021/08/27 10:18:11;;;;;;;1.27;1.27;;;16.70;99.90;;;;;;6154172;23;20488;-72
2021/08/27 10:20:40;;;;;;;1.20;1.20;;;16.70;99.90;;;;;;6154461;23;20450;-72
2021/08/27 10:23:08;;;;;;;1.17;1.17;;;16.80;99.90;;;;;;6154224;23;20521;-72
2021/08/27 10:25:35;;;;;;;1.10;1.10;;;16.90;99.90;;;;;;6154148;23;20565;-72
2021/08/27 10:28:05;;;;;;;1.40;1.40;;;17.10;99.90;;;;;;6154311;23;20436;-73
2021/08/27 10:30:52;;;;;;;1.20;1.20;;;17.10;99.90;;;;;;6153776;23;20495;-71
2021/08/27 10:33:20;;;;;;;2.00;1.10;;;17.20;99.90;;;;;;6154380;23;20432;-72
2021/08/27 10:35:50;;;;;;;1.20;1.20;;;17.30;99.90;;;;;;6155318;23;20473;-69
2021/08/27 10:38:40;;;;;;;1.00;1.00;;;17.20;99.90;;;;;;6154387;23;20479;-70
2021/08/27 10:41:11;;;;;;;0.97;0.97;;;17.30;99.90;;;;;;6154917;23;20442;-70
2021/08/27 10:44:07;;;;;;;0.73;0.73;;;17.30;99.90;;;;;;6154077;23;20430;-71
2021/08/27 10:47:10;;;;;;;1.10;1.10;;;17.10;99.90;;;;;;6069762;23;20562;-70
2021/08/27 10:50:00;;;;;;;0.90;0.90;;;17.00;99.90;;;;;;6156468;23;20426;-71
2021/08/27 10:52:39;;;;;;;2.17;1.10;;;17.00;99.90;;;;;;6155764;23;20442;-70
2021/08/27 10:55:14;;;;;;;1.40;1.30;;;17.10;99.90;;;;;;6156223;23;20407;-70
2021/08/27 10:57:55;;;;;;;1.33;1.23;;;17.20;99.90;;;;;;6156092;23;20951;-71
2021/08/27 11:00:40;;;;;;;1.20;1.00;;;17.40;99.90;;;;;;6155330;23;20734;-70
2021/08/27 11:03:09;;;;;;;1.10;1.10;;;17.50;99.90;;;;;;6155314;23;20736;-71
2021/08/27 11:05:39;;;;;;;1.17;1.00;;;17.60;99.90;;;;;;6155671;23;20454;-70
2021/08/27 11:08:07;;;;;;;1.20;1.20;;;17.80;99.90;;;;;;6155718;23;20415;-70
2021/08/27 11:10:38;;;;;;;1.10;1.10;;;18.00;99.90;;;;;;6165198;23;20925;-71
2021/08/27 11:13:15;;;;;;;1.03;1.03;;;18.20;99.90;;;;;;6155631;23;20407;-70
2021/08/27 11:15:43;;;;;;;1.20;1.20;;;18.20;99.90;;;;;;6154585;23;20733;-70
2021/08/27 11:18:21;;;;;;;1.10;1.10;;;18.20;99.90;;;;;;6155384;23;20423;-69
2021/08/27 11:20:48;;;;;;;0.60;0.60;;;18.10;99.90;;;;;;6155725;23;20762;-69
2021/08/27 11:23:16;;;;;;;1.30;0.80;;;18.10;99.90;;;;;;6155154;23;20920;-70
2021/08/27 11:25:43;;;;;;;0.50;0.50;;;18.00;99.90;;;;;;6155575;23;20537;-70
2021/08/27 11:28:16;;;;;;;0.50;0.50;;;18.00;99.90;;;;;;6155116;23;20433;-69
2021/08/27 11:30:45;;;;;;;0.60;0.50;;;18.10;99.90;;;;;;6155073;23;20633;-70
2021/08/27 11:34:01;;;;;;;0.50;0.50;;;18.30;99.90;;;;;;6154985;23;20422;-70
2021/08/27 11:36:34;;;;;;;0.70;0.70;;;18.30;99.90;;;;;;6155306;23;20892;-70
2021/08/27 11:39:01;;;;;;;0.87;0.87;;;18.40;99.90;;;;;;6155453;23;20435;-69
2021/08/27 11:41:28;;;;;;;0.70;0.70;;;18.30;99.90;;;;;;6155480;23;20462;-70
2021/08/27 11:44:05;;;;;;;0.60;0.60;;;18.40;99.90;;;;;;6154963;23;20433;-70
2021/08/27 11:46:34;;;;;;;1.00;0.83;;;18.40;99.90;;;;;;6154567;23;20496;-70
2021/08/27 11:49:10;;;;;;;0.73;0.60;;;18.30;99.90;;;;;;6165163;23;20422;-70
2021/08/27 11:51:44;;;;;;;1.00;1.00;;;18.20;99.90;;;;;;6154846;23;20940;-70
2021/08/27 11:54:17;;;;;;;0.83;0.77;;;18.20;99.90;;;;;;6154769;23;20869;-70
2021/08/27 11:56:49;;;;;;;0.50;0.50;;;18.30;99.90;;;;;;6155633;23;20426;-70
2021/08/27 11:59:21;;;;;;;0.70;0.70;;;18.30;99.90;;;;;;6154573;23;20491;-70
2021/08/27 12:01:49;;;;;;;0.50;0.50;;;18.30;99.90;;;;;;6154354;23;20465;-70
2021/08/27 12:04:30;;;;;;;1.33;0.60;;;18.40;99.90;;;;;;6154517;23;20433;-71
2021/08/27 12:07:07;;;;;;;0.60;0.60;;;18.60;99.90;;;;;;6154638;23;20463;-71
2021/08/27 12:09:34;;;;;;;0.50;0.50;;;18.70;99.90;;;;;;6155533;23;20415;-70
2021/08/27 12:12:01;;;;;;;0.50;0.50;;;18.80;99.90;;;;;;6155069;23;20442;-70
2021/08/27 12:14:53;;;;;;;0.50;0.50;;;18.90;99.90;;;;;;6154678;23;20422;-70
2021/08/27 12:17:22;;;;;;;0.50;0.50;;;19.00;99.90;;;;;;6154888;23;20433;-71
2021/08/27 12:19:50;;;;;;;1.27;0.40;;;18.90;99.90;;;;;;6155296;23;20450;-71
2021/08/27 12:22:18;;;;;;;0.60;0.60;;;18.90;99.90;;;;;;6154774;23;20771;-72
2021/08/27 12:24:46;;;;;;;0.50;0.50;;;18.80;99.90;;;;;;6155249;23;20503;-70
2021/08/27 12:27:14;;;;;;;0.70;0.70;;;18.80;99.90;;;;;;6164660;23;20495;-70
2021/08/27 12:29:41;;;;;;;1.03;0.57;;;18.80;99.90;;;;;;6154861;23;20422;-70
2021/08/27 12:32:13;;;;;;;1.03;0.50;;;19.00;99.90;;;;;;6154311;23;20517;-71
2021/08/27 12:34:44;;;;;;;0.50;0.50;;;19.10;99.90;;;;;;6155496;23;20411;-71
2021/08/27 12:37:14;;;;;;;0.97;0.40;;;19.10;99.90;;;;;;6155686;23;20407;-71
2021/08/27 12:39:41;;;;;;;0.77;0.77;;;19.10;99.90;;;;;;6155773;23;20423;-71
2021/08/27 12:42:12;;;;;;;0.40;0.40;;;19.10;99.90;;;;;;6154460;23;20501;-71
2021/08/27 12:44:55;;;;;;;0.97;0.50;;;19.20;99.90;;;;;;6154348;23;20917;-71
2021/08/27 12:47:33;;;;;;;0.50;0.50;;;19.30;99.90;;;;;;6154072;23;20884;-70
2021/08/27 12:50:03;;;;;;;0.30;0.30;;;19.40;99.90;;;;;;6155105;23;20432;-70
2021/08/27 12:52:30;;;;;;;0.40;0.40;;;19.50;99.90;;;;;;6154385;23;20451;-70
2021/08/27 12:54:57;;;;;;;0.43;0.30;;;19.40;99.90;;;;;;6154644;23;20810;-71
2021/08/27 12:57:24;;;;;;;0.57;0.50;;;19.20;99.90;;;;;;6154326;23;20916;-70
2021/08/27 12:59:59;;;;;;;0.40;0.40;;;19.40;99.90;;;;;;6153880;23;20431;-71
2021/08/27 13:02:26;;;;;;;0.60;0.60;;;19.50;99.90;;;;;;6153294;23;20450;-71
2021/08/27 13:04:53;;;;;;;0.40;0.40;;;19.60;99.90;;;;;;6154903;23;20722;-71
2021/08/27 13:07:30;;;;;;;0.50;0.50;;;19.70;99.90;;;;;;6154194;23;20470;-71
2021/08/27 13:10:11;;;;;;;0.30;0.30;;;19.90;99.90;;;;;;6154523;23;20410;-71
2021/08/27 13:12:39;;;;;;;0.50;0.40;;;19.90;99.90;;;;;;6154374;23;20430;-71
2021/08/27 13:15:16;;;;;;;0.70;0.40;;;19.90;99.90;;;;;;6154266;23;20691;-71
2021/08/27 13:17:55;;;;;;;0.77;0.30;;;19.70;99.90;;;;;;6154452;23;20403;-70
2021/08/27 13:20:23;;;;;;;0.50;0.50;;;19.50;99.90;;;;;;6154792;23;20673;-71
2021/08/27 13:22:51;;;;;;;0.20;0.20;;;19.30;99.90;;;;;;6154454;23;20422;-71
2021/08/27 13:25:27;;;;;;;0.43;0.43;;;19.30;99.90;;;;;;6154689;23;20481;-71
2021/08/27 13:27:54;;;;;;;0.30;0.30;;;19.10;99.90;;;;;;6154778;23;20434;-70
2021/08/27 13:30:21;;;;;;;0.87;0.33;;;18.80;99.90;;;;;;6154386;23;20422;-70
2021/08/27 13:32:51;;;;;;;0.27;0.27;;;18.60;99.90;;;;;;6153910;23;20529;-72
2021/08/27 13:35:19;;;;;;;0.30;0.23;;;18.50;99.90;;;;;;6154996;23;20458;-73
2021/08/27 13:37:47;;;;;;;0.20;0.20;;;18.40;99.90;;;;;;6154915;23;20419;-72
2021/08/27 13:40:17;;;;;;;0.33;0.33;;;18.40;99.90;;;;;;6154214;23;20769;-72
2021/08/27 13:42:44;;;;;;;0.47;0.40;;;18.40;99.90;;;;;;6154324;23;20430;-72
2021/08/27 13:45:12;;;;;;;0.63;0.40;;;18.50;99.90;;;;;;6154378;23;20433;-72
2021/08/27 13:47:38;;;;;;;0.93;0.30;;;18.60;99.90;;;;;;6154142;23;20454;-73
2021/08/27 13:50:10;;;;;;;0.60;0.60;;;18.60;99.90;;;;;;6154385;23;20549;-72
2021/08/27 13:52:37;;;;;;;0.27;0.27;;;18.60;99.90;;;;;;6154731;23;20457;-73
2021/08/27 13:55:04;;;;;;;0.40;0.40;;;18.40;99.90;;;;;;6154676;23;20431;-72
2021/08/27 13:57:32;;;;;;;0.50;0.50;;;18.40;99.90;;;;;;6154158;23;20433;-72
2021/08/27 13:59:59;;;;;;;0.30;0.30;;;18.30;99.90;;;;;;6153733;23;20422;-71
2021/08/27 14:02:26;;;;;;;0.50;0.50;;;18.50;99.90;;;;;;6153021;23;20466;-72
2021/08/27 14:04:53;;;;;;;2.30;0.80;;;18.70;99.90;;;;;;6154443;23;20792;-71
2021/08/27 14:07:19;;;;;;;0.40;0.40;;;19.00;99.90;;;;;;6153755;23;20457;-72
2021/08/27 14:09:46;;;;;;;0.53;0.40;;;19.20;99.90;;;;;;6154266;23;20429;-71
2021/08/27 14:12:13;;;;;;;0.30;0.30;;;19.30;99.90;;;;;;6153692;23;20577;-69
2021/08/27 14:14:41;;;;;;;0.90;0.50;;;19.20;99.90;;;;;;6153998;23;20422;-72
2021/08/27 14:17:08;;;;;;;2.60;0.53;;;19.20;99.90;;;;;;6153928;23;20427;-72
2021/08/27 14:19:34;;;;;;;0.40;0.30;;;19.20;99.90;;;;;;6154373;23;20427;-71
2021/08/27 14:22:01;;;;;;;0.60;0.60;;;19.20;99.90;;;;;;6154280;23;20529;-73
2021/08/27 14:24:28;;;;;;;0.50;0.50;;;19.00;99.90;;;;;;6156375;23;20422;-74
2021/08/27 14:26:54;;;;;;;0.53;0.40;;;19.00;99.90;;;;;;6156180;23;20442;-74
2021/08/27 14:29:21;;;;;;;0.87;0.50;;;18.90;99.90;;;;;;6155612;23;20426;-73
2021/08/27 14:31:49;;;;;;;0.60;0.43;;;18.80;99.90;;;;;;6155437;23;20451;-71
2021/08/27 14:34:16;;;;;;;0.40;0.40;;;18.70;99.90;;;;;;6155881;23;20423;-73
2021/08/27 14:36:43;;;;;;;0.50;0.50;;;18.70;99.90;;;;;;6155514;23;20419;-73
2021/08/27 14:39:10;;;;;;;1.00;0.50;;;18.60;99.90;;;;;;6155707;23;20920;-74
2021/08/27 14:41:36;;;;;;;0.77;0.60;;;18.60;99.90;;;;;;6155622;23;20945;-75
2021/08/27 14:44:04;;;;;;;0.33;0.33;;;18.60;99.90;;;;;;6155649;23;20422;-72
2021/08/27 14:46:31;;;;;;;0.50;0.50;;;18.60;99.90;;;;;;6154924;23;20458;-72
2021/08/27 14:48:59;;;;;;;0.97;0.47;;;18.50;99.90;;;;;;6156273;23;20423;-71
2021/08/27 14:51:26;;;;;;;0.67;0.30;;;18.40;99.90;;;;;;6156128;23;20442;-71
2021/08/27 14:53:53;;;;;;;3.93;0.30;;;18.30;99.90;;;;;;6155793;23;20681;-71
2021/08/27 14:56:21;;;;;;;0.87;0.40;;;18.30;99.90;;;;;;6155455;23;20506;-71
2021/08/27 14:58:48;;;;;;;0.40;0.40;;;18.30;99.90;;;;;;6155374;23;20484;-70
2021/08/27 15:01:14;;;;;;;0.40;0.40;;;18.30;99.90;;;;;;6155391;23;20458;-72
2021/08/27 15:03:41;;;;;;;0.40;0.40;;;18.20;99.90;;;;;;6155805;23;20434;-70
2021/08/27 15:06:09;;;;;;;0.40;0.40;;;18.20;99.90;;;;;;6155469;23;20815;-72
2021/08/27 15:08:36;;;;;;;0.50;0.50;;;18.20;99.90;;;;;;6155767;23;20434;-71
2021/08/27 15:11:03;;;;;;;0.33;0.33;;;18.30;99.90;;;;;;6156116;23;20779;-70
2021/08/27 15:13:29;;;;;;;0.57;0.57;;;18.40;99.90;;;;;;6155778;23;20427;-70
2021/08/27 15:15:57;;;;;;;0.50;0.50;;;18.40;99.90;;;;;;6154833;23;20419;-71
2021/08/27 15:18:24;;;;;;;0.50;0.40;;;18.40;99.90;;;;;;6155245;23;20443;-70
2021/08/27 15:20:51;;;;;;;1.07;0.40;;;18.60;99.90;;;;;;6156075;23;20446;-70
2021/08/27 15:23:19;;;;;;;0.50;0.50;;;18.60;99.90;;;;;;6155104;23;20426;-70
2021/08/27 15:25:45;;;;;;;0.50;0.50;;;18.80;99.90;;;;;;6155990;23;20423;-70
2021/08/27 15:28:12;;;;;;;2.50;0.40;;;18.90;99.90;;;;;;6155560;23;20530;-71
2021/08/27 15:30:39;;;;;;;0.60;0.60;;;19.00;99.90;;;;;;6155176;23;20526;-72
2021/08/27 15:33:06;;;;;;;0.30;0.30;;;19.10;99.90;;;;;;6154777;23;20427;-71
2021/08/27 15:35:32;;;;;;;0.30;0.30;;;19.10;99.90;;;;;;6155401;23;20429;-71
2021/08/27 15:37:59;;;;;;;0.40;0.40;;;19.10;99.90;;;;;;6155841;23;20419;-71
2021/08/27 15:40:27;;;;;;;0.97;0.50;;;19.00;99.90;;;;;;6155182;23;20442;-71
2021/08/27 15:42:54;;;;;;;0.40;0.40;;;18.80;99.90;;;;;;6156304;23;20431;-71
2021/08/27 15:45:20;;;;;;;0.40;0.40;;;18.80;99.90;;;;;;6157607;23;20423;-70
2021/08/27 15:47:47;;;;;;;0.40;0.40;;;18.70;99.90;;;;;;6155267;23;20456;-71
2021/08/27 15:50:16;;;;;;;0.50;0.50;;;18.60;99.90;;;;;;6155396;23;20505;-71
2021/08/27 15:52:42;;;;;;;0.50;0.50;;;18.40;99.90;;;;;;6155160;23;20905;-72
2021/08/27 15:55:10;;;;;;;0.60;0.60;;;18.40;99.90;;;;;;6155488;23;20427;-71
2021/08/27 15:57:38;;;;;;;1.30;1.20;;;18.30;99.90;;;;;;6155702;23;20450;-70
2021/08/27 16:00:07;;;;;;;3.40;2.87;;;18.30;99.90;;;;;;6154474;23;20454;-70
2021/08/27 16:02:34;;;;;;;0.93;0.93;;;18.20;99.90;;;;;;6153970;23;20897;-71
2021/08/27 16:05:01;;;;;;;0.60;0.60;;;18.20;99.90;;;;;;6155139;23;20422;-71
2021/08/27 16:07:28;;;;;;;0.50;0.50;;;18.20;99.90;;;;;;6154661;23;20760;-70
2021/08/27 16:09:54;;;;;;;0.63;0.63;;;18.30;99.90;;;;;;6154926;23;20463;-71
2021/08/27 16:12:22;;;;;;;0.50;0.50;;;18.40;99.90;;;;;;6153974;23;20473;-70
2021/08/27 16:14:52;;;;;;;1.10;1.10;;;18.50;99.90;;;;;;6154089;23;20427;-72
2021/08/27 16:17:19;;;;;;;0.80;0.80;;;18.50;99.90;;;;;;6154161;23;20433;-71
2021/08/27 16:19:46;;;;;;;0.50;0.50;;;18.50;99.90;;;;;;6155207;23;20501;-71
2021/08/27 16:22:13;;;;;;;0.50;0.50;;;18.50;99.90;;;;;;6154038;23;20506;-71
2021/08/27 16:24:40;;;;;;;1.07;1.03;;;18.50;99.90;;;;;;6154491;23;20427;-71
2021/08/27 16:27:07;;;;;;;0.57;0.57;;;18.50;99.90;;;;;;6154099;23;20442;-71
2021/08/27 16:29:33;;;;;;;0.90;0.90;;;18.40;99.90;;;;;;6153951;23;21017;-71
2021/08/27 16:32:02;;;;;;;1.70;1.57;;;18.40;99.90;;;;;;6153909;23;20584;-71
2021/08/27 16:34:28;;;;;;;1.10;1.10;;;18.30;99.90;;;;;;6154460;23;20818;-72
2021/08/27 16:36:55;;;;;;;0.80;0.80;;;18.30;99.90;;;;;;6154433;23;20419;-71
2021/08/27 16:39:22;;;;;;;0.40;0.40;;;18.30;99.90;;;;;;6154515;23;20430;-70
2021/08/27 16:41:48;;;;;;;1.03;0.50;;;18.20;99.90;;;;;;6154886;23;20509;-71
2021/08/27 16:44:15;;;;;;;1.00;0.40;;;18.10;99.90;;;;;;6152919;23;20439;-71
2021/08/27 16:46:42;;;;;;;0.60;0.60;;;18.10;99.90;;;;;;6153792;23;20481;-71
2021/08/27 16:49:10;;;;;;;1.17;0.47;;;18.00;99.90;;;;;;6154440;23;20506;-71
2021/08/27 16:51:37;;;;;;;0.50;0.50;;;17.90;99.90;;;;;;6155039;23;20449;-72
2021/08/27 16:54:03;;;;;;;0.60;0.60;;;17.90;99.90;;;;;;6155828;23;20439;-71
2021/08/27 16:56:30;;;;;;;0.60;0.60;;;17.90;99.90;;;;;;6154393;23;20827;-71
2021/08/27 16:58:57;;;;;;;0.87;0.87;;;17.90;99.90;;;;;;6153959;23;20795;-71